• Join FlightAware (Why Join?)
  • Login
  • US Flag 
03:49AM EST


 

Airport Tracker/Info


-or-


 

Live Flight TrackerFlight Track Log ✈ N9305N ✈ 04-Jul-2014 ✈ KFMY - KVRB

Flight Track Log - Related Links

Times and Time Zones

All times are in EDT time to prevent confusion due to time zone crossing. See the N9305N flight status page for this flight to view local times or setup timezone preferences in your user account.

Time Position Orientation Groundspeed Altitude Reporting Facility
EDT Latitude Longitude Course Direction KTS MPH feet Rate Location/Type
11:12AM 26.5736 -81.9011 93° East 78 90 1,600  Level Miami Center
11:13AM 26.5897 -81.9231 309° West 82 94 2,200 540 Climbing Miami Center
11:14AM 26.6050 -81.9436 310° West 83 96 2,800 420 Climbing Miami Center
11:15AM 26.6219 -81.9669 309° West 92 106 3,100 120 Climbing Miami Center
11:16AM 26.7078 -81.7017 80° East  Level Estimated
11:16AM 26.6422 -81.9925 312° West 105 121 3,100  Level Miami Center
11:17AM 26.7061 -81.6666 93° East  Level FlightAware Approximate
11:17AM 26.6692 -82.0033 340° North 106 122 3,600  Level Miami Center
11:18AM 26.6858 -81.9806 51° Northeast 96 110 4,200 540 Climbing Miami Center
11:19AM 26.7000 -81.9542 59° Northeast 95 109 4,800 420 Climbing Miami Center
11:20AM 26.7158 -81.9292 55° Northeast 98 113 5,100  Climbing Miami Center
11:21AM 26.7219 -81.8914 80° East 114 131 4,900  Descending Miami Center
11:22AM 26.7275 -81.8586 79° East 111 128 5,100  Climbing Miami Center
11:23AM 26.7347 -81.8189 78° East 119 137 5,000 -60 Descending Miami Center
11:24AM 26.7400 -81.7828 81° East 119 137 5,000  Level Miami Center
11:25AM 26.7469 -81.7450 78° East 119 137 5,000  Level Miami Center
11:26AM 26.7531 -81.7089 79° East 118 136 5,000  Level Miami Center
11:27AM 26.7589 -81.6717 80° East 116 133 5,000  Level Miami Center
11:28AM 26.7647 -81.6372 79° East 114 131 5,000  Level Miami Center
11:29AM 26.7717 -81.5969 79° East 124 143 5,000  Level Miami Center
11:30AM 26.7769 -81.5633 80° East 114 131 5,000 60 Level Miami Center
11:31AM 26.7819 -81.5269 81° East 111 128 5,200  Climbing Miami Center
11:32AM 26.7889 -81.4883 79° East 113 130 5,000 -120 Descending Miami Center
11:33AM 26.7900 -81.4544 88° East 111 128 5,000  Level Miami Center
11:34AM 26.7972 -81.4183 77° East 110 127 5,000  Level Miami Center
11:35AM 26.8031 -81.3836 79° East 113 130 5,000  Level Miami Center
11:37AM 26.8089 -81.3433 81° East 122 140 5,000  Level Miami Center
11:38AM 26.8161 -81.3078 77° East 118 136 5,000  Level Miami Center
11:39AM 26.8222 -81.2697 80° East 116 133 5,000  Level Miami Center
11:40AM 26.8283 -81.2344 79° East 117 135 5,000  Level Miami Center
11:41AM 26.8353 -81.1967 78° East 116 133 5,000  Level Miami Center
11:42AM 26.8625 -81.1722 39° Northeast 126 145 5,000  Level Miami Center
11:43AM 26.8903 -81.1453 41° Northeast 124 143 5,000  Level Miami Center
11:44AM 26.9164 -81.1211 40° Northeast 123 142 5,000  Level Miami Center
11:45AM 26.9447 -81.0944 40° Northeast 124 143 5,000  Level Miami Center
11:46AM 26.9706 -81.0697 40° Northeast 123 142 5,000  Level Miami Center
11:47AM 26.9986 -81.0439 39° Northeast 124 143 5,000  Level Miami Center
11:48AM 27.0269 -81.0167 41° Northeast 125 144 5,000  Level Miami Center
11:49AM 27.0556 -80.9900 40° Northeast 128 147 5,000  Level Miami Center
11:50AM 27.0831 -80.9636 41° Northeast 127 146 5,000  Level Miami Center
11:51AM 27.1092 -80.9383 41° Northeast 127 146 5,000  Level Miami Center
11:52AM 27.1378 -80.9111 40° Northeast 129 148 5,000  Level Miami Center
11:53AM 27.1667 -80.8839 40° Northeast 129 148 5,000  Level Miami Center
11:54AM 27.1950 -80.8569 40° Northeast 129 148 5,000  Level Miami Center
11:55AM 27.2228 -80.8317 39° Northeast 126 145 5,000  Level Miami Center
11:56AM 27.2475 -80.8086 40° Northeast 113 130 5,000  Level Miami Center
11:57AM 27.2733 -80.7831 41° Northeast 125 144 5,000  Level Miami Center
11:58AM 27.3014 -80.7561 40° Northeast 126 145 5,000  Level Miami Center
11:59AM 27.3297 -80.7297 40° Northeast 126 145 5,000  Level Miami Center
12:00PM 27.3572 -80.7031 41° Northeast 126 145 5,000  Level Miami Center
12:01PM 27.3847 -80.6769 40° Northeast 125 144 5,000  Level Miami Center
12:02PM 27.4044 -80.6447 55° Northeast 124 143 5,000  Level Miami Center
12:03PM 27.4200 -80.6122 62° Northeast 123 142 5,000  Level Miami Center
12:04PM 27.4369 -80.5783 61° Northeast 123 142 5,000  Level Miami Center
12:05PM 27.4544 -80.5433 61° Northeast 122 140 5,000  Level Miami Center
12:06PM 27.4717 -80.5078 61° Northeast 122 140 5,000  Level Miami Center
12:07PM 27.4894 -80.4722 61° Northeast 123 142 5,000  Level Miami Center
12:09PM 27.5061 -80.4361 63° Northeast 123 142 5,000 -60 Level Miami Center
12:10PM 27.5172 -80.4017 70° East 123 142 4,900 -360 Descending Miami Center
12:11PM 27.5242 -80.3603 79° East 126 145 4,300 -540 Descending Miami Center
12:12PM 27.5306 -80.3194 80° East 126 145 3,800 -660 Descending Miami Center
12:13PM 27.5381 -80.2803 78° East 125 144 3,000 -780 Descending Miami Center
12:14PM 27.5625 -80.2636 31° Northeast 115 132 2,200 -600 Descending Miami Center
12:15PM 27.5911 -80.2692 350° North 107 123 1,800 -240 Descending Miami Center
12:16PM 27.6064 -80.2928 306° West 99 114 1,800  Level Miami Center
12:17PM 27.6175 -80.3225 293° West 99 114 1,800 -300 Level Miami Center
12:18PM 27.6314 -80.3467 303° West 90 104 1,300 -480 Descending Miami Center
12:19PM 27.6403 -80.3722 291° West 87 100 900 -300 Descending Miami Center
12:20PM 27.6472 -80.3967 288° West 82 94 700 -60 Descending Miami Center
12:21PM 27.6569 -80.4200 295° West 81 93 800 300 Climbing Miami Center
12:22PM 27.6736 -80.4369 318° Northwest 81 93 1,400 600 Climbing Miami Center
12:23PM 27.6922 -80.4592 313° West 90 104 2,100 600 Climbing Miami Center
12:24PM 27.7044 -80.4831 300° West 87 100 2,700 600 Climbing Miami Center
12:25PM 27.7156 -80.5058 299° West 84 97 3,400 540 Climbing Miami Center
12:26PM 27.7256 -80.5317 294° West 85 98 3,900 300 Climbing Miami Center
12:27PM 27.7367 -80.5561 297° West 88 101 4,100 300 Climbing Miami Center
12:28PM 27.7472 -80.5822 295° West 87 100 4,600 480 Climbing Miami Center
12:29PM 27.7586 -80.6092 296° West 88 101 5,100 240 Climbing Miami Center
12:30PM 27.7722 -80.6383 298° West 99 114 5,100  Level Miami Center
12:31PM 27.7794 -80.6711 284° West 105 121 5,100  Level Miami Center
12:32PM 27.7897 -80.7056 289° West 106 122 5,100  Level Miami Center
12:33PM 27.8022 -80.7372 294° West 107 123 5,100  Level Miami Center
12:34PM 27.8139 -80.7664 294° West 106 122 5,100 -60 Level Miami Center
12:35PM 27.8264 -80.7986 294° West 106 122 5,000 -60 Descending Miami Center
12:36PM 27.8375 -80.8294 292° West 106 122 5,000  Level Miami Center
12:37PM 27.8494 -80.8597 294° West 102 117 5,000  Level Miami Center
12:38PM 27.8633 -80.8939 295° West 111 128 5,000  Level Miami Center
12:39PM 27.8753 -80.9261 293° West 111 128 5,000  Level Miami Center
12:41PM 27.8861 -80.9539 294° West 103 119 5,000  Level Miami Center
12:42PM 27.9128 -80.9681 335° Northwest 111 128 5,000  Level Miami Center
12:43PM 27.9464 -80.9747 350° North 114 131 5,000  Level Miami Center
12:44PM 27.9803 -80.9811 351° North 117 135 5,000  Level Miami Center
12:45PM 28.0133 -80.9872 351° North 117 135 5,000  Level Miami Center
12:46PM 28.0464 -80.9931 351° North 117 135 5,000  Level Miami Center
12:47PM 28.0778 -80.9989 351° North 117 135 5,000 -60 Level Miami Center
12:48PM 28.1097 -81.0053 350° North 117 135 4,900 -480 Descending Miami Center
12:49PM 28.1444 -81.0128 349° North 122 140 4,100 -780 Descending Miami Center
12:50PM 28.1769 -81.0206 348° North 122 140 3,300 -540 Descending Miami Center
12:51PM 28.2156 -81.0292 349° North 118 136 3,000 -180 Descending Miami Center
12:52PM 28.2492 -81.0369 348° North 120 138 3,000  Level Miami Center
12:53PM 28.2822 -81.0444 349° North 120 138 3,000  Level Miami Center
12:54PM 28.3147 -81.0514 349° North 120 138 3,000  Level Miami Center
12:55PM 28.3481 -81.0586 349° North 121 139 3,000  Level Miami Center
12:56PM 28.3806 -81.0658 349° North 120 138 3,000  Level Miami Center
12:57PM 28.4136 -81.0736 348° North 120 138 3,000  Level Miami Center
12:58PM 28.4333 -81.0833 337° Northwest 114 131 3,000 -240 Level Orlando TRACON
12:59PM 28.4667 -81.1000 336° Northwest 130 150 2,700 -180 Descending Orlando TRACON
01:00PM 28.5000 -81.1167 336° Northwest 110 127 2,700  Level Orlando TRACON
01:01PM 28.5333 -81.1167 360° North 108 124 2,700  Level Orlando TRACON
01:02PM 28.5667 -81.1333 336° Northwest 108 124 2,700  Level Orlando TRACON
01:03PM 28.6000 -81.1333 360° North 118 136 2,700  Level Orlando TRACON
01:04PM 28.6167 -81.1500 319° Northwest 97 112 2,700  Level Orlando TRACON
01:05PM 28.6000 -81.1667 221° Southwest 94 108 2,700 -540 Level Orlando TRACON
01:06PM 28.6000 -81.2000 270° West 99 114 1,700 -600 Descending Orlando TRACON
01:07PM 28.5833 -81.2333 240° Southwest 87 100 1,500 -180 Descending Orlando TRACON
01:08PM 28.5667 -81.2500 221° Southwest 92 106 1,400 -360 Descending Orlando TRACON
01:09PM 28.5667 -81.2833 270° West 115 132 900 -540 Descending Orlando TRACON
01:11PM 28.5468 -81.2643 140° Southeast  Level Estimated
01:18PM 28.4204 -81.1430 140° Southeast  Level Estimated
01:19PM 28.4023 -81.1257 140° Southeast  Level Estimated
01:20PM 28.3842 -81.1085 140° Southeast  Level Estimated
01:21PM 28.3661 -81.0912 140° Southeast  Level Estimated